sensor_id;sensor_type;location;lat;lon;timestamp;temperature;humidity
62583;DHT22;48641;51.676;5.808;2023-01-29T00:01:03;12.60;63.30
62583;DHT22;48641;51.676;5.808;2023-01-29T00:03:29;12.60;63.30
62583;DHT22;48641;51.676;5.808;2023-01-29T00:05:54;12.60;63.20
62583;DHT22;48641;51.676;5.808;2023-01-29T00:08:20;12.60;63.20
62583;DHT22;48641;51.676;5.808;2023-01-29T00:10:46;12.60;63.20
62583;DHT22;48641;51.676;5.808;2023-01-29T00:13:12;12.60;63.20
62583;DHT22;48641;51.676;5.808;2023-01-29T00:15:37;12.50;63.10
62583;DHT22;48641;51.676;5.808;2023-01-29T00:18:03;12.50;63.10
62583;DHT22;48641;51.676;5.808;2023-01-29T00:20:29;12.50;63.10
62583;DHT22;48641;51.676;5.808;2023-01-29T00:22:55;12.50;63.10
62583;DHT22;48641;51.676;5.808;2023-01-29T00:25:21;12.50;63.00
62583;DHT22;48641;51.676;5.808;2023-01-29T00:27:47;12.50;63.10
62583;DHT22;48641;51.676;5.808;2023-01-29T00:30:13;12.50;63.00
62583;DHT22;48641;51.676;5.808;2023-01-29T00:32:44;12.50;63.10
62583;DHT22;48641;51.676;5.808;2023-01-29T00:35:10;12.50;63.00
62583;DHT22;48641;51.676;5.808;2023-01-29T00:37:36;12.50;63.00
62583;DHT22;48641;51.676;5.808;2023-01-29T00:40:03;12.50;63.00
62583;DHT22;48641;51.676;5.808;2023-01-29T00:42:29;12.50;63.00
62583;DHT22;48641;51.676;5.808;2023-01-29T00:45:13;12.50;62.90
62583;DHT22;48641;51.676;5.808;2023-01-29T00:47:39;12.40;62.90
62583;DHT22;48641;51.676;5.808;2023-01-29T00:50:08;12.50;63.00
62583;DHT22;48641;51.676;5.808;2023-01-29T00:52:35;12.40;62.90
62583;DHT22;48641;51.676;5.808;2023-01-29T00:55:06;12.40;62.90
62583;DHT22;48641;51.676;5.808;2023-01-29T00:57:34;12.40;62.90
62583;DHT22;48641;51.676;5.808;2023-01-29T01:00:00;12.40;62.90
62583;DHT22;48641;51.676;5.808;2023-01-29T01:02:27;12.40;62.90
62583;DHT22;48641;51.676;5.808;2023-01-29T01:05:13;12.40;62.90
62583;DHT22;48641;51.676;5.808;2023-01-29T01:07:43;12.40;62.90
62583;DHT22;48641;51.676;5.808;2023-01-29T01:10:34;12.40;62.90
62583;DHT22;48641;51.676;5.808;2023-01-29T01:13:05;12.40;62.90
62583;DHT22;48641;51.676;5.808;2023-01-29T01:15:37;12.40;63.00
62583;DHT22;48641;51.676;5.808;2023-01-29T01:18:03;12.40;62.90
62583;DHT22;48641;51.676;5.808;2023-01-29T01:20:31;12.40;62.90
62583;DHT22;48641;51.676;5.808;2023-01-29T01:22:57;12.40;62.90
62583;DHT22;48641;51.676;5.808;2023-01-29T01:25:24;12.40;62.90
62583;DHT22;48641;51.676;5.808;2023-01-29T01:27:54;12.40;62.90
62583;DHT22;48641;51.676;5.808;2023-01-29T01:30:20;12.30;62.80
62583;DHT22;48641;51.676;5.808;2023-01-29T01:32:47;12.30;62.90
62583;DHT22;48641;51.676;5.808;2023-01-29T01:35:12;12.30;62.80
62583;DHT22;48641;51.676;5.808;2023-01-29T01:37:39;12.30;62.90
62583;DHT22;48641;51.676;5.808;2023-01-29T01:40:13;12.30;62.80
62583;DHT22;48641;51.676;5.808;2023-01-29T01:42:42;12.30;62.80
62583;DHT22;48641;51.676;5.808;2023-01-29T01:45:38;12.30;62.80
62583;DHT22;48641;51.676;5.808;2023-01-29T01:48:23;12.30;62.90
62583;DHT22;48641;51.676;5.808;2023-01-29T01:53:30;12.30;63.00
62583;DHT22;48641;51.676;5.808;2023-01-29T01:56:02;12.30;62.90
62583;DHT22;48641;51.676;5.808;2023-01-29T01:58:44;12.30;63.00
62583;DHT22;48641;51.676;5.808;2023-01-29T02:01:11;12.30;62.80
62583;DHT22;48641;51.676;5.808;2023-01-29T02:03:42;12.30;62.90
62583;DHT22;48641;51.676;5.808;2023-01-29T02:06:30;12.30;62.90
62583;DHT22;48641;51.676;5.808;2023-01-29T02:09:22;12.20;62.90
62583;DHT22;48641;51.676;5.808;2023-01-29T02:12:04;12.20;62.90
62583;DHT22;48641;51.676;5.808;2023-01-29T02:14:31;12.20;62.90
62583;DHT22;48641;51.676;5.808;2023-01-29T02:17:00;12.20;62.90
62583;DHT22;48641;51.676;5.808;2023-01-29T02:25:11;12.20;62.70
62583;DHT22;48641;51.676;5.808;2023-01-29T02:28:13;12.20;62.90
62583;DHT22;48641;51.676;5.808;2023-01-29T02:39:27;12.10;63.00
62583;DHT22;48641;51.676;5.808;2023-01-29T02:42:24;12.10;62.90
62583;DHT22;48641;51.676;5.808;2023-01-29T02:45:11;12.10;63.00
62583;DHT22;48641;51.676;5.808;2023-01-29T02:47:56;12.10;63.10
62583;DHT22;48641;51.676;5.808;2023-01-29T02:50:44;12.10;63.00
62583;DHT22;48641;51.676;5.808;2023-01-29T02:53:39;12.10;63.00
62583;DHT22;48641;51.676;5.808;2023-01-29T02:56:11;12.10;63.10
62583;DHT22;48641;51.676;5.808;2023-01-29T02:58:45;12.10;63.00
62583;DHT22;48641;51.676;5.808;2023-01-29T03:01:20;12.10;63.00
62583;DHT22;48641;51.676;5.808;2023-01-29T03:03:52;12.10;63.00
62583;DHT22;48641;51.676;5.808;2023-01-29T03:06:26;12.10;63.00
62583;DHT22;48641;51.676;5.808;2023-01-29T03:11:22;12.10;63.00
62583;DHT22;48641;51.676;5.808;2023-01-29T03:14:02;12.10;62.90
62583;DHT22;48641;51.676;5.808;2023-01-29T03:16:32;12.10;62.80
62583;DHT22;48641;51.676;5.808;2023-01-29T03:21:35;12.10;62.90
62583;DHT22;48641;51.676;5.808;2023-01-29T03:24:38;12.10;62.80
62583;DHT22;48641;51.676;5.808;2023-01-29T03:27:51;12.10;62.90
62583;DHT22;48641;51.676;5.808;2023-01-29T03:30:41;12.10;62.80
62583;DHT22;48641;51.676;5.808;2023-01-29T03:33:27;12.00;62.90
62583;DHT22;48641;51.676;5.808;2023-01-29T03:36:05;12.00;62.90
62583;DHT22;48641;51.676;5.808;2023-01-29T03:38:31;12.00;62.90
62583;DHT22;48641;51.676;5.808;2023-01-29T03:41:07;12.00;62.90
62583;DHT22;48641;51.676;5.808;2023-01-29T03:43:38;12.00;62.90
62583;DHT22;48641;51.676;5.808;2023-01-29T03:46:34;12.00;62.90
62583;DHT22;48641;51.676;5.808;2023-01-29T03:49:14;12.00;62.80
62583;DHT22;48641;51.676;5.808;2023-01-29T03:54:56;12.00;62.80
62583;DHT22;48641;51.676;5.808;2023-01-29T03:57:55;12.00;62.90
62583;DHT22;48641;51.676;5.808;2023-01-29T04:00:33;12.00;62.80
62583;DHT22;48641;51.676;5.808;2023-01-29T04:03:18;12.00;62.90
62583;DHT22;48641;51.676;5.808;2023-01-29T04:05:52;12.00;62.90
62583;DHT22;48641;51.676;5.808;2023-01-29T04:08:28;12.00;62.90
62583;DHT22;48641;51.676;5.808;2023-01-29T04:10:58;12.00;62.90
62583;DHT22;48641;51.676;5.808;2023-01-29T04:13:26;11.90;62.90
62583;DHT22;48641;51.676;5.808;2023-01-29T04:15:57;12.00;62.90
62583;DHT22;48641;51.676;5.808;2023-01-29T04:18:24;12.00;62.80
62583;DHT22;48641;51.676;5.808;2023-01-29T04:20:50;12.00;62.80
62583;DHT22;48641;51.676;5.808;2023-01-29T04:23:24;12.00;62.70
62583;DHT22;48641;51.676;5.808;2023-01-29T04:31:44;12.00;62.60
62583;DHT22;48641;51.676;5.808;2023-01-29T04:34:36;12.00;63.70
62583;DHT22;48641;51.676;5.808;2023-01-29T04:37:34;11.90;62.70
62583;DHT22;48641;51.676;5.808;2023-01-29T04:40:25;11.90;62.70
62583;DHT22;48641;51.676;5.808;2023-01-29T04:43:12;11.90;62.70
62583;DHT22;48641;51.676;5.808;2023-01-29T04:45:59;11.90;62.70
62583;DHT22;48641;51.676;5.808;2023-01-29T04:48:57;11.90;62.70
62583;DHT22;48641;51.676;5.808;2023-01-29T04:54:27;11.80;62.70
62583;DHT22;48641;51.676;5.808;2023-01-29T04:59:39;11.80;62.60
62583;DHT22;48641;51.676;5.808;2023-01-29T05:02:07;11.80;62.60
62583;DHT22;48641;51.676;5.808;2023-01-29T05:04:36;11.80;62.70
62583;DHT22;48641;51.676;5.808;2023-01-29T05:07:05;11.80;62.60
62583;DHT22;48641;51.676;5.808;2023-01-29T05:09:33;11.80;62.60
62583;DHT22;48641;51.676;5.808;2023-01-29T05:11:59;11.80;62.60
62583;DHT22;48641;51.676;5.808;2023-01-29T05:14:27;11.80;62.60
62583;DHT22;48641;51.676;5.808;2023-01-29T05:16:56;11.80;62.60
62583;DHT22;48641;51.676;5.808;2023-01-29T05:19:22;11.80;62.60
62583;DHT22;48641;51.676;5.808;2023-01-29T05:21:49;11.80;62.60
62583;DHT22;48641;51.676;5.808;2023-01-29T05:24:20;11.80;62.60
62583;DHT22;48641;51.676;5.808;2023-01-29T05:26:48;11.80;62.50
62583;DHT22;48641;51.676;5.808;2023-01-29T05:29:33;11.80;62.40
62583;DHT22;48641;51.676;5.808;2023-01-29T05:31:58;11.80;62.40
62583;DHT22;48641;51.676;5.808;2023-01-29T05:34:24;11.80;62.50
62583;DHT22;48641;51.676;5.808;2023-01-29T05:36:50;11.80;62.40
62583;DHT22;48641;51.676;5.808;2023-01-29T05:39:16;11.80;62.40
62583;DHT22;48641;51.676;5.808;2023-01-29T05:41:42;11.80;62.40
62583;DHT22;48641;51.676;5.808;2023-01-29T05:44:09;11.80;62.40
62583;DHT22;48641;51.676;5.808;2023-01-29T05:46:35;11.80;62.40
62583;DHT22;48641;51.676;5.808;2023-01-29T05:49:01;11.80;62.40
62583;DHT22;48641;51.676;5.808;2023-01-29T05:51:27;11.80;62.40
62583;DHT22;48641;51.676;5.808;2023-01-29T05:53:52;11.80;62.40
62583;DHT22;48641;51.676;5.808;2023-01-29T05:56:18;11.80;62.40
62583;DHT22;48641;51.676;5.808;2023-01-29T05:58:44;11.80;62.40
62583;DHT22;48641;51.676;5.808;2023-01-29T06:01:11;11.80;62.40
62583;DHT22;48641;51.676;5.808;2023-01-29T06:03:37;11.80;62.40
62583;DHT22;48641;51.676;5.808;2023-01-29T06:06:03;11.80;62.40
62583;DHT22;48641;51.676;5.808;2023-01-29T06:08:28;11.80;62.40
62583;DHT22;48641;51.676;5.808;2023-01-29T06:10:54;11.80;62.40
62583;DHT22;48641;51.676;5.808;2023-01-29T06:13:19;11.80;62.40
62583;DHT22;48641;51.676;5.808;2023-01-29T06:15:45;11.80;62.40
62583;DHT22;48641;51.676;5.808;2023-01-29T06:18:10;11.80;62.40
62583;DHT22;48641;51.676;5.808;2023-01-29T06:20:36;11.80;62.40
62583;DHT22;48641;51.676;5.808;2023-01-29T06:23:02;11.80;62.40
62583;DHT22;48641;51.676;5.808;2023-01-29T06:25:27;11.80;62.40
62583;DHT22;48641;51.676;5.808;2023-01-29T06:27:53;11.80;62.40
62583;DHT22;48641;51.676;5.808;2023-01-29T06:30:19;11.80;62.40
62583;DHT22;48641;51.676;5.808;2023-01-29T06:32:44;11.80;62.40
62583;DHT22;48641;51.676;5.808;2023-01-29T06:35:10;11.80;62.40
62583;DHT22;48641;51.676;5.808;2023-01-29T06:37:36;11.80;62.50
62583;DHT22;48641;51.676;5.808;2023-01-29T06:40:02;11.80;62.50
62583;DHT22;48641;51.676;5.808;2023-01-29T06:42:28;11.80;62.50
62583;DHT22;48641;51.676;5.808;2023-01-29T06:44:54;11.70;62.50
62583;DHT22;48641;51.676;5.808;2023-01-29T06:47:20;11.80;62.60
62583;DHT22;48641;51.676;5.808;2023-01-29T06:49:46;11.80;62.60
62583;DHT22;48641;51.676;5.808;2023-01-29T06:52:11;11.80;62.60
62583;DHT22;48641;51.676;5.808;2023-01-29T06:54:37;11.80;62.60
62583;DHT22;48641;51.676;5.808;2023-01-29T06:57:02;11.80;62.60
62583;DHT22;48641;51.676;5.808;2023-01-29T06:59:28;11.80;62.60
62583;DHT22;48641;51.676;5.808;2023-01-29T07:01:54;11.80;62.60
62583;DHT22;48641;51.676;5.808;2023-01-29T07:04:19;11.80;62.60
62583;DHT22;48641;51.676;5.808;2023-01-29T07:06:45;11.80;62.60
62583;DHT22;48641;51.676;5.808;2023-01-29T07:09:11;11.80;62.60
62583;DHT22;48641;51.676;5.808;2023-01-29T07:11:38;11.80;62.60
62583;DHT22;48641;51.676;5.808;2023-01-29T07:14:04;11.80;62.60
62583;DHT22;48641;51.676;5.808;2023-01-29T07:16:30;11.80;62.60
62583;DHT22;48641;51.676;5.808;2023-01-29T07:18:55;11.80;62.60
62583;DHT22;48641;51.676;5.808;2023-01-29T07:21:21;11.80;62.60
62583;DHT22;48641;51.676;5.808;2023-01-29T07:23:47;11.80;62.60
62583;DHT22;48641;51.676;5.808;2023-01-29T07:26:13;11.80;62.60
62583;DHT22;48641;51.676;5.808;2023-01-29T07:28:39;11.80;62.60
62583;DHT22;48641;51.676;5.808;2023-01-29T07:31:05;11.80;62.60
62583;DHT22;48641;51.676;5.808;2023-01-29T07:33:31;11.90;62.60
62583;DHT22;48641;51.676;5.808;2023-01-29T07:35:57;11.90;62.70
62583;DHT22;48641;51.676;5.808;2023-01-29T07:38:23;11.90;62.50
62583;DHT22;48641;51.676;5.808;2023-01-29T07:40:50;11.90;62.60
62583;DHT22;48641;51.676;5.808;2023-01-29T07:43:16;11.90;62.60
62583;DHT22;48641;51.676;5.808;2023-01-29T07:45:41;11.90;62.50
62583;DHT22;48641;51.676;5.808;2023-01-29T07:48:10;11.90;62.50
62583;DHT22;48641;51.676;5.808;2023-01-29T07:50:36;11.90;62.50
62583;DHT22;48641;51.676;5.808;2023-01-29T07:53:02;11.90;62.60
62583;DHT22;48641;51.676;5.808;2023-01-29T07:55:28;11.90;62.60
62583;DHT22;48641;51.676;5.808;2023-01-29T07:58:01;11.90;62.60
62583;DHT22;48641;51.676;5.808;2023-01-29T08:00:27;11.90;63.60
62583;DHT22;48641;51.676;5.808;2023-01-29T08:03:00;11.90;62.50
62583;DHT22;48641;51.676;5.808;2023-01-29T08:05:26;11.90;62.60
62583;DHT22;48641;51.676;5.808;2023-01-29T08:07:52;11.90;62.50
62583;DHT22;48641;51.676;5.808;2023-01-29T08:10:18;11.90;62.50
62583;DHT22;48641;51.676;5.808;2023-01-29T08:12:44;11.90;62.50
62583;DHT22;48641;51.676;5.808;2023-01-29T08:15:09;12.00;62.50
62583;DHT22;48641;51.676;5.808;2023-01-29T08:17:35;12.00;62.50
62583;DHT22;48641;51.676;5.808;2023-01-29T08:20:05;12.00;62.50
62583;DHT22;48641;51.676;5.808;2023-01-29T08:22:31;12.00;62.50
62583;DHT22;48641;51.676;5.808;2023-01-29T08:24:56;12.00;62.50
62583;DHT22;48641;51.676;5.808;2023-01-29T08:27:22;12.00;62.50
62583;DHT22;48641;51.676;5.808;2023-01-29T08:29:48;12.00;62.50
62583;DHT22;48641;51.676;5.808;2023-01-29T08:32:13;12.00;62.50
62583;DHT22;48641;51.676;5.808;2023-01-29T08:34:39;12.00;62.50
62583;DHT22;48641;51.676;5.808;2023-01-29T08:37:04;12.00;62.50
62583;DHT22;48641;51.676;5.808;2023-01-29T08:39:30;12.00;62.40
62583;DHT22;48641;51.676;5.808;2023-01-29T08:41:55;12.00;62.50
62583;DHT22;48641;51.676;5.808;2023-01-29T08:44:21;11.90;62.40
62583;DHT22;48641;51.676;5.808;2023-01-29T08:46:47;12.00;62.50
62583;DHT22;48641;51.676;5.808;2023-01-29T08:49:12;11.90;62.40
62583;DHT22;48641;51.676;5.808;2023-01-29T08:51:38;11.90;62.40
62583;DHT22;48641;51.676;5.808;2023-01-29T08:54:03;11.90;62.40
62583;DHT22;48641;51.676;5.808;2023-01-29T08:56:29;11.90;62.40
62583;DHT22;48641;51.676;5.808;2023-01-29T08:58:54;11.90;62.50
62583;DHT22;48641;51.676;5.808;2023-01-29T09:01:20;11.90;62.40
62583;DHT22;48641;51.676;5.808;2023-01-29T09:03:46;11.90;62.40
62583;DHT22;48641;51.676;5.808;2023-01-29T09:06:13;11.90;62.40
62583;DHT22;48641;51.676;5.808;2023-01-29T09:08:39;11.90;62.40
62583;DHT22;48641;51.676;5.808;2023-01-29T09:11:05;11.90;62.50
62583;DHT22;48641;51.676;5.808;2023-01-29T09:13:31;11.90;62.40
62583;DHT22;48641;51.676;5.808;2023-01-29T09:16:01;11.90;62.40
62583;DHT22;48641;51.676;5.808;2023-01-29T09:18:28;11.90;62.40
62583;DHT22;48641;51.676;5.808;2023-01-29T09:20:54;11.90;63.40
62583;DHT22;48641;51.676;5.808;2023-01-29T09:23:20;11.90;62.40
62583;DHT22;48641;51.676;5.808;2023-01-29T09:25:46;11.90;62.30
62583;DHT22;48641;51.676;5.808;2023-01-29T09:28:11;11.80;62.30
62583;DHT22;48641;51.676;5.808;2023-01-29T09:30:37;11.80;62.30
62583;DHT22;48641;51.676;5.808;2023-01-29T09:33:04;11.80;62.30
62583;DHT22;48641;51.676;5.808;2023-01-29T09:35:30;11.80;62.30
62583;DHT22;48641;51.676;5.808;2023-01-29T09:37:55;11.80;62.30
62583;DHT22;48641;51.676;5.808;2023-01-29T09:40:37;11.80;63.20
62583;DHT22;48641;51.676;5.808;2023-01-29T09:43:19;11.80;63.00
62583;DHT22;48641;51.676;5.808;2023-01-29T09:46:03;11.90;62.90
62583;DHT22;48641;51.676;5.808;2023-01-29T09:48:32;11.80;62.80
62583;DHT22;48641;51.676;5.808;2023-01-29T09:51:02;11.80;63.70
62583;DHT22;48641;51.676;5.808;2023-01-29T09:53:49;11.80;62.70
62583;DHT22;48641;51.676;5.808;2023-01-29T09:56:21;11.80;62.60
62583;DHT22;48641;51.676;5.808;2023-01-29T09:58:53;11.80;62.60
62583;DHT22;48641;51.676;5.808;2023-01-29T10:01:40;11.80;62.60
62583;DHT22;48641;51.676;5.808;2023-01-29T10:13:25;11.70;62.40
62583;DHT22;48641;51.676;5.808;2023-01-29T10:16:23;11.70;62.50
62583;DHT22;48641;51.676;5.808;2023-01-29T10:22:06;11.70;62.70
62583;DHT22;48641;51.676;5.808;2023-01-29T10:24:53;11.60;62.80
62583;DHT22;48641;51.676;5.808;2023-01-29T10:27:21;11.60;62.70
62583;DHT22;48641;51.676;5.808;2023-01-29T10:29:49;11.60;62.70
62583;DHT22;48641;51.676;5.808;2023-01-29T10:32:17;11.70;62.70
62583;DHT22;48641;51.676;5.808;2023-01-29T10:35:27;11.60;62.60
62583;DHT22;48641;51.676;5.808;2023-01-29T10:37:55;11.60;62.80
62583;DHT22;48641;51.676;5.808;2023-01-29T10:43:21;11.50;62.80
62583;DHT22;48641;51.676;5.808;2023-01-29T10:48:43;11.50;63.10
62583;DHT22;48641;51.676;5.808;2023-01-29T11:02:17;11.50;62.80
62583;DHT22;48641;51.676;5.808;2023-01-29T11:04:44;11.60;62.90
62583;DHT22;48641;51.676;5.808;2023-01-29T11:07:11;11.50;62.80
62583;DHT22;48641;51.676;5.808;2023-01-29T11:12:12;11.60;62.70
62583;DHT22;48641;51.676;5.808;2023-01-29T11:14:49;11.60;62.70
62583;DHT22;48641;51.676;5.808;2023-01-29T11:17:22;11.60;62.60
62583;DHT22;48641;51.676;5.808;2023-01-29T11:19:49;11.60;62.70
62583;DHT22;48641;51.676;5.808;2023-01-29T11:22:21;11.60;62.60
62583;DHT22;48641;51.676;5.808;2023-01-29T11:25:18;11.60;62.60
62583;DHT22;48641;51.676;5.808;2023-01-29T11:27:51;11.60;62.50
62583;DHT22;48641;51.676;5.808;2023-01-29T11:30:38;11.60;62.70
62583;DHT22;48641;51.676;5.808;2023-01-29T11:33:18;11.60;62.60
62583;DHT22;48641;51.676;5.808;2023-01-29T11:35:45;11.60;62.70
62583;DHT22;48641;51.676;5.808;2023-01-29T11:38:25;11.50;62.60
62583;DHT22;48641;51.676;5.808;2023-01-29T11:40:51;11.60;62.70
62583;DHT22;48641;51.676;5.808;2023-01-29T11:45:50;11.50;62.70
62583;DHT22;48641;51.676;5.808;2023-01-29T11:48:18;11.60;62.80
62583;DHT22;48641;51.676;5.808;2023-01-29T11:50:58;11.60;62.70
62583;DHT22;48641;51.676;5.808;2023-01-29T11:53:54;11.60;63.00
62583;DHT22;48641;51.676;5.808;2023-01-29T11:56:27;11.60;63.10
62583;DHT22;48641;51.676;5.808;2023-01-29T11:58:54;11.60;63.20
62583;DHT22;48641;51.676;5.808;2023-01-29T12:01:34;11.60;64.30
62583;DHT22;48641;51.676;5.808;2023-01-29T12:04:02;11.70;64.90
62583;DHT22;48641;51.676;5.808;2023-01-29T12:06:34;11.70;64.80
62583;DHT22;48641;51.676;5.808;2023-01-29T12:09:02;11.70;64.60
62583;DHT22;48641;51.676;5.808;2023-01-29T12:11:34;11.80;65.20
62583;DHT22;48641;51.676;5.808;2023-01-29T12:14:02;11.70;63.80
62583;DHT22;48641;51.676;5.808;2023-01-29T12:21:59;11.70;62.70
62583;DHT22;48641;51.676;5.808;2023-01-29T12:24:58;11.70;63.10
62583;DHT22;48641;51.676;5.808;2023-01-29T12:30:10;11.70;62.90
62583;DHT22;48641;51.676;5.808;2023-01-29T12:35:25;11.70;62.90
62583;DHT22;48641;51.676;5.808;2023-01-29T12:38:16;11.70;63.20
62583;DHT22;48641;51.676;5.808;2023-01-29T12:40:52;11.70;63.10
62583;DHT22;48641;51.676;5.808;2023-01-29T12:43:34;11.70;63.00
62583;DHT22;48641;51.676;5.808;2023-01-29T12:46:06;11.70;62.90
62583;DHT22;48641;51.676;5.808;2023-01-29T12:48:34;11.60;63.10
62583;DHT22;48641;51.676;5.808;2023-01-29T12:51:14;11.60;63.10
62583;DHT22;48641;51.676;5.808;2023-01-29T12:54:16;11.70;62.90
62583;DHT22;48641;51.676;5.808;2023-01-29T12:56:48;11.70;62.90
62583;DHT22;48641;51.676;5.808;2023-01-29T12:59:41;11.60;62.80
62583;DHT22;48641;51.676;5.808;2023-01-29T13:02:30;11.70;62.80
62583;DHT22;48641;51.676;5.808;2023-01-29T13:05:15;11.70;62.80
62583;DHT22;48641;51.676;5.808;2023-01-29T13:07:46;11.60;62.70
62583;DHT22;48641;51.676;5.808;2023-01-29T13:10:17;11.60;62.70
62583;DHT22;48641;51.676;5.808;2023-01-29T13:13:00;11.60;62.70
62583;DHT22;48641;51.676;5.808;2023-01-29T13:15:35;11.60;62.70
62583;DHT22;48641;51.676;5.808;2023-01-29T13:18:41;11.60;62.70
62583;DHT22;48641;51.676;5.808;2023-01-29T13:21:30;11.60;62.60
62583;DHT22;48641;51.676;5.808;2023-01-29T13:24:04;11.60;62.60
62583;DHT22;48641;51.676;5.808;2023-01-29T13:26:34;11.60;62.70
62583;DHT22;48641;51.676;5.808;2023-01-29T13:29:00;11.60;62.70
62583;DHT22;48641;51.676;5.808;2023-01-29T13:31:30;11.60;62.70
62583;DHT22;48641;51.676;5.808;2023-01-29T13:34:06;11.60;62.60
62583;DHT22;48641;51.676;5.808;2023-01-29T13:36:33;11.60;62.60
62583;DHT22;48641;51.676;5.808;2023-01-29T13:39:13;11.60;62.60
62583;DHT22;48641;51.676;5.808;2023-01-29T13:41:41;11.60;62.60
62583;DHT22;48641;51.676;5.808;2023-01-29T13:44:38;11.60;62.50
62583;DHT22;48641;51.676;5.808;2023-01-29T13:47:08;11.60;62.50
62583;DHT22;48641;51.676;5.808;2023-01-29T13:49:45;11.60;62.60
62583;DHT22;48641;51.676;5.808;2023-01-29T13:54:54;11.60;63.30
62583;DHT22;48641;51.676;5.808;2023-01-29T14:10:39;11.60;62.70
62583;DHT22;48641;51.676;5.808;2023-01-29T14:18:58;11.60;62.60
62583;DHT22;48641;51.676;5.808;2023-01-29T14:21:30;11.50;62.60
62583;DHT22;48641;51.676;5.808;2023-01-29T14:24:17;11.50;62.60
62583;DHT22;48641;51.676;5.808;2023-01-29T14:26:46;11.50;62.50
62583;DHT22;48641;51.676;5.808;2023-01-29T14:31:48;11.50;62.60
62583;DHT22;48641;51.676;5.808;2023-01-29T14:34:28;11.50;62.60
62583;DHT22;48641;51.676;5.808;2023-01-29T14:36:57;11.50;62.60
62583;DHT22;48641;51.676;5.808;2023-01-29T14:39:34;11.50;62.50
62583;DHT22;48641;51.676;5.808;2023-01-29T14:42:04;11.50;62.50
62583;DHT22;48641;51.676;5.808;2023-01-29T14:52:24;11.50;62.50
62583;DHT22;48641;51.676;5.808;2023-01-29T14:54:52;11.50;62.50
62583;DHT22;48641;51.676;5.808;2023-01-29T14:57:19;11.50;62.60
62583;DHT22;48641;51.676;5.808;2023-01-29T14:59:53;11.50;62.50
62583;DHT22;48641;51.676;5.808;2023-01-29T15:02:30;11.50;62.50
62583;DHT22;48641;51.676;5.808;2023-01-29T15:05:02;11.50;62.50
62583;DHT22;48641;51.676;5.808;2023-01-29T15:07:31;11.50;62.50
62583;DHT22;48641;51.676;5.808;2023-01-29T15:10:02;11.50;62.50
62583;DHT22;48641;51.676;5.808;2023-01-29T15:18:32;11.50;62.50
62583;DHT22;48641;51.676;5.808;2023-01-29T15:21:04;11.50;62.40
62583;DHT22;48641;51.676;5.808;2023-01-29T15:23:33;11.50;62.50
62583;DHT22;48641;51.676;5.808;2023-01-29T15:26:01;11.50;62.50
62583;DHT22;48641;51.676;5.808;2023-01-29T15:28:29;11.50;62.50
62583;DHT22;48641;51.676;5.808;2023-01-29T15:31:00;11.50;62.50
62583;DHT22;48641;51.676;5.808;2023-01-29T15:33:26;11.50;62.50
62583;DHT22;48641;51.676;5.808;2023-01-29T15:36:19;11.50;62.40
62583;DHT22;48641;51.676;5.808;2023-01-29T15:38:45;11.50;62.40
62583;DHT22;48641;51.676;5.808;2023-01-29T15:41:19;11.50;62.40
62583;DHT22;48641;51.676;5.808;2023-01-29T15:43:47;11.50;63.40
62583;DHT22;48641;51.676;5.808;2023-01-29T15:46:33;11.50;62.40
62583;DHT22;48641;51.676;5.808;2023-01-29T15:49:01;11.50;62.40
62583;DHT22;48641;51.676;5.808;2023-01-29T15:51:30;11.40;62.30
62583;DHT22;48641;51.676;5.808;2023-01-29T15:54:04;11.50;62.40
62583;DHT22;48641;51.676;5.808;2023-01-29T15:56:34;11.50;62.40
62583;DHT22;48641;51.676;5.808;2023-01-29T15:59:03;11.50;62.40
62583;DHT22;48641;51.676;5.808;2023-01-29T16:01:30;11.50;62.40
62583;DHT22;48641;51.676;5.808;2023-01-29T16:03:57;11.40;62.40
62583;DHT22;48641;51.676;5.808;2023-01-29T16:06:31;11.40;63.30
62583;DHT22;48641;51.676;5.808;2023-01-29T16:08:58;11.50;62.40
62583;DHT22;48641;51.676;5.808;2023-01-29T16:11:24;11.40;62.30
62583;DHT22;48641;51.676;5.808;2023-01-29T16:13:50;11.50;62.40
62583;DHT22;48641;51.676;5.808;2023-01-29T16:16:25;11.50;62.30
62583;DHT22;48641;51.676;5.808;2023-01-29T16:18:51;11.50;62.30
62583;DHT22;48641;51.676;5.808;2023-01-29T16:21:33;11.40;62.30
62583;DHT22;48641;51.676;5.808;2023-01-29T16:24:11;11.50;62.30
62583;DHT22;48641;51.676;5.808;2023-01-29T16:26:43;11.50;62.30
62583;DHT22;48641;51.676;5.808;2023-01-29T16:29:16;11.40;62.30
62583;DHT22;48641;51.676;5.808;2023-01-29T16:31:44;11.50;62.30
62583;DHT22;48641;51.676;5.808;2023-01-29T16:34:24;11.40;62.30
62583;DHT22;48641;51.676;5.808;2023-01-29T16:36:51;11.50;62.30
62583;DHT22;48641;51.676;5.808;2023-01-29T16:39:23;11.40;62.30
62583;DHT22;48641;51.676;5.808;2023-01-29T16:44:40;11.40;62.30
62583;DHT22;48641;51.676;5.808;2023-01-29T16:47:15;11.40;62.30
62583;DHT22;48641;51.676;5.808;2023-01-29T16:49:53;11.40;62.30
62583;DHT22;48641;51.676;5.808;2023-01-29T16:52:24;11.40;63.10
62583;DHT22;48641;51.676;5.808;2023-01-29T16:54:50;11.40;62.80
62583;DHT22;48641;51.676;5.808;2023-01-29T16:57:22;11.40;62.70
62583;DHT22;48641;51.676;5.808;2023-01-29T16:59:53;11.50;62.60
62583;DHT22;48641;51.676;5.808;2023-01-29T17:02:26;11.40;62.60
62583;DHT22;48641;51.676;5.808;2023-01-29T17:04:57;11.40;62.50
62583;DHT22;48641;51.676;5.808;2023-01-29T17:07:24;11.40;62.50
62583;DHT22;48641;51.676;5.808;2023-01-29T17:09:52;11.40;62.50
62583;DHT22;48641;51.676;5.808;2023-01-29T17:12:20;11.40;62.50
62583;DHT22;48641;51.676;5.808;2023-01-29T17:14:55;11.40;62.40
62583;DHT22;48641;51.676;5.808;2023-01-29T17:17:21;11.40;62.70
62583;DHT22;48641;51.676;5.808;2023-01-29T17:19:52;11.40;62.70
62583;DHT22;48641;51.676;5.808;2023-01-29T17:22:18;11.40;62.70
62583;DHT22;48641;51.676;5.808;2023-01-29T17:24:43;11.40;62.50
62583;DHT22;48641;51.676;5.808;2023-01-29T17:27:20;11.40;62.50
62583;DHT22;48641;51.676;5.808;2023-01-29T17:29:47;11.40;62.50
62583;DHT22;48641;51.676;5.808;2023-01-29T17:32:13;11.40;62.50
62583;DHT22;48641;51.676;5.808;2023-01-29T17:34:39;11.40;62.50
62583;DHT22;48641;51.676;5.808;2023-01-29T17:37:04;11.40;62.50
62583;DHT22;48641;51.676;5.808;2023-01-29T17:39:31;11.40;62.50
62583;DHT22;48641;51.676;5.808;2023-01-29T17:41:57;11.40;62.40
62583;DHT22;48641;51.676;5.808;2023-01-29T17:44:23;11.40;62.40
62583;DHT22;48641;51.676;5.808;2023-01-29T17:46:52;11.40;62.40
62583;DHT22;48641;51.676;5.808;2023-01-29T17:49:29;11.40;62.40
62583;DHT22;48641;51.676;5.808;2023-01-29T17:51:56;11.30;62.60
62583;DHT22;48641;51.676;5.808;2023-01-29T17:54:23;11.30;62.60
62583;DHT22;48641;51.676;5.808;2023-01-29T17:56:50;11.30;62.60
62583;DHT22;48641;51.676;5.808;2023-01-29T17:59:18;11.30;62.50
62583;DHT22;48641;51.676;5.808;2023-01-29T18:01:44;11.40;62.50